createdAt,value
2018-03-22T00:01:15.207Z,102089.05
2018-03-22T00:03:41.294Z,102091.56
2018-03-22T00:06:07.382Z,102083.82
2018-03-22T00:08:33.383Z,102073.61
2018-03-22T00:10:59.433Z,102067.84
2018-03-22T00:13:25.495Z,102070.87
2018-03-22T00:15:51.558Z,102068.03
2018-03-22T00:18:17.713Z,102068.28
2018-03-22T00:20:43.911Z,102064.69
2018-03-22T00:23:10.570Z,102054.91
2018-03-22T00:25:37.263Z,102047.37
2018-03-22T00:28:03.302Z,102045.29
2018-03-22T00:30:29.301Z,102041.66
2018-03-22T00:32:55.318Z,102037.25
2018-03-22T00:35:21.628Z,102040.04
2018-03-22T00:37:47.856Z,102028.16
2018-03-22T00:40:13.901Z,102027.69
2018-03-22T00:42:39.958Z,102028.33
2018-03-22T00:45:06.017Z,102012.55
2018-03-22T00:47:32.109Z,102000.80
2018-03-22T00:49:58.113Z,101999.91
2018-03-22T00:52:24.171Z,101985.86
2018-03-22T00:54:50.549Z,101974.92
2018-03-22T00:57:16.660Z,101978.34
2018-03-22T00:59:42.725Z,101970.09
2018-03-22T01:02:08.742Z,101970.39
2018-03-22T01:04:34.761Z,101962.27
2018-03-22T01:07:00.825Z,101957.27
2018-03-22T01:09:26.874Z,101958.41
2018-03-22T01:11:52.939Z,101953.62
2018-03-22T01:14:18.970Z,101950.17
2018-03-22T01:16:45.093Z,101952.82
2018-03-22T01:19:11.142Z,101946.58
2018-03-22T01:21:37.178Z,101941.33
2018-03-22T01:24:03.266Z,101940.81
2018-03-22T01:26:29.283Z,101934.00
2018-03-22T01:28:55.311Z,101929.04
2018-03-22T01:31:21.322Z,101935.14
2018-03-22T01:33:47.334Z,101927.38
2018-03-22T01:36:13.394Z,101925.06
2018-03-22T01:38:39.438Z,101923.36
2018-03-22T01:41:05.439Z,101917.41
2018-03-22T01:43:31.434Z,101912.39
2018-03-22T01:45:57.489Z,101908.46
2018-03-22T01:48:23.517Z,101912.96
2018-03-22T01:50:49.574Z,101897.39
2018-03-22T01:53:15.565Z,101894.03
2018-03-22T01:55:41.610Z,101881.92
2018-03-22T01:58:07.678Z,101868.88
2018-03-22T02:00:33.740Z,101866.55
2018-03-22T02:02:59.785Z,101872.66
2018-03-22T02:05:25.802Z,101871.05
2018-03-22T02:07:51.866Z,101866.59
2018-03-22T02:10:17.874Z,101861.39
2018-03-22T02:12:43.879Z,101852.87
2018-03-22T02:15:10.065Z,101859.97
2018-03-22T02:17:36.201Z,101857.80
2018-03-22T02:20:02.222Z,101851.78
2018-03-22T02:22:28.251Z,101842.70
2018-03-22T02:24:54.357Z,101847.77
2018-03-22T02:27:20.429Z,101833.70
2018-03-22T02:29:46.570Z,101835.47
2018-03-22T02:32:12.622Z,101823.21
2018-03-22T02:34:38.702Z,101822.51
2018-03-22T02:37:05.039Z,101809.17
2018-03-22T02:39:31.057Z,101804.73
2018-03-22T02:41:57.076Z,101802.18
2018-03-22T02:44:23.105Z,101799.63
2018-03-22T02:46:49.141Z,101792.52
2018-03-22T02:49:15.155Z,101792.95
2018-03-22T02:51:41.219Z,101787.91
2018-03-22T02:54:07.239Z,101785.20
2018-03-22T02:56:33.416Z,101790.36
2018-03-22T02:58:59.561Z,101788.70
2018-03-22T03:01:25.633Z,101784.45
2018-03-22T03:03:51.634Z,101792.30
2018-03-22T03:06:17.688Z,101784.40
2018-03-22T03:08:43.705Z,101774.33
2018-03-22T03:11:09.715Z,101772.56
2018-03-22T03:13:35.757Z,101775.83
2018-03-22T03:16:01.803Z,101774.55
2018-03-22T03:18:27.931Z,101775.41
2018-03-22T03:20:54.251Z,101770.34
2018-03-22T03:23:20.402Z,101764.34
2018-03-22T03:25:46.483Z,101760.08
2018-03-22T03:28:12.550Z,101748.22
2018-03-22T03:30:38.706Z,101755.83
2018-03-22T03:33:05.349Z,101752.19
2018-03-22T03:35:31.372Z,101746.33
2018-03-22T03:37:57.423Z,101755.45
2018-03-22T03:40:23.427Z,101740.23
2018-03-22T03:42:49.490Z,101736.73
2018-03-22T03:45:15.477Z,101740.84
2018-03-22T03:47:41.513Z,101735.55
2018-03-22T03:50:07.516Z,101737.48
2018-03-22T03:52:33.480Z,101738.05
2018-03-22T03:54:59.446Z,101722.45
2018-03-22T03:57:32.584Z,101724.10
2018-03-22T03:59:58.736Z,101717.96
2018-03-22T04:02:24.798Z,101709.17
2018-03-22T04:04:50.786Z,101708.14
2018-03-22T04:07:16.904Z,101698.45
2018-03-22T04:09:42.922Z,101693.58
2018-03-22T04:12:09.006Z,101694.10
2018-03-22T04:14:34.983Z,101691.31
2018-03-22T04:17:01.034Z,101692.94
2018-03-22T04:19:27.023Z,101700.36
2018-03-22T04:21:53.223Z,101695.11
2018-03-22T04:24:19.250Z,101683.73
2018-03-22T04:26:45.268Z,101690.34
2018-03-22T04:29:11.304Z,101677.34
2018-03-22T04:31:37.350Z,101681.27
2018-03-22T04:34:03.418Z,101674.84
2018-03-22T04:36:29.439Z,101676.45
2018-03-22T04:38:55.538Z,101680.47
2018-03-22T04:41:21.550Z,101670.27
2018-03-22T04:43:47.571Z,101667.52
2018-03-22T04:46:13.900Z,101662.17
2018-03-22T04:48:39.957Z,101659.95
2018-03-22T04:51:06.062Z,101669.69
2018-03-22T04:53:32.062Z,101664.02
2018-03-22T04:55:58.562Z,101666.95
2018-03-22T04:58:24.758Z,101660.00
2018-03-22T05:00:50.757Z,101659.16
2018-03-22T05:03:17.150Z,101654.14
2018-03-22T05:05:43.147Z,101646.58
2018-03-22T05:08:09.457Z,101646.20
2018-03-22T05:10:35.489Z,101641.81
2018-03-22T05:13:01.639Z,101636.09
2018-03-22T05:15:27.650Z,101634.82
2018-03-22T05:17:53.691Z,101631.23
2018-03-22T05:20:19.719Z,101630.37
2018-03-22T05:22:45.730Z,101631.28
2018-03-22T05:25:11.777Z,101624.99
2018-03-22T05:27:37.850Z,101622.77
2018-03-22T05:30:03.866Z,101618.75
2018-03-22T05:32:29.882Z,101626.59
2018-03-22T05:34:55.928Z,101619.41
2018-03-22T05:37:21.976Z,101613.27
2018-03-22T05:39:48.200Z,101613.22
2018-03-22T05:42:15.099Z,101606.83
2018-03-22T05:44:41.114Z,101609.43
2018-03-22T05:47:07.138Z,101611.17
2018-03-22T05:49:33.230Z,101605.31
2018-03-22T05:51:59.220Z,101602.19
2018-03-22T05:54:25.249Z,101598.97
2018-03-22T05:56:51.235Z,101594.38
2018-03-22T05:59:17.244Z,101593.28
2018-03-22T06:01:43.278Z,101601.84
2018-03-22T06:04:09.663Z,101598.63
2018-03-22T06:06:35.666Z,101591.38
2018-03-22T06:09:01.726Z,101597.43
2018-03-22T06:11:27.767Z,101592.73
2018-03-22T06:13:53.785Z,101584.75
2018-03-22T06:16:19.774Z,101581.05
2018-03-22T06:18:45.890Z,101583.07
2018-03-22T06:21:11.964Z,101577.95
2018-03-22T06:23:38.594Z,101573.92
2018-03-22T06:26:04.754Z,101571.17
2018-03-22T06:28:30.793Z,101563.13
2018-03-22T06:30:56.841Z,101562.18
2018-03-22T06:33:22.891Z,101566.42
2018-03-22T06:35:48.889Z,101567.61
2018-03-22T06:38:14.892Z,101567.56
2018-03-22T06:40:41.186Z,101562.32
2018-03-22T06:43:07.182Z,101561.31
2018-03-22T06:45:33.181Z,101555.92
2018-03-22T06:47:59.175Z,101551.00
2018-03-22T06:50:25.173Z,101556.98
2018-03-22T06:52:51.250Z,101538.02
2018-03-22T06:55:17.257Z,101548.20
2018-03-22T06:57:43.244Z,101551.08
2018-03-22T07:00:09.246Z,101545.45
2018-03-22T07:02:35.249Z,101547.16
2018-03-22T07:05:01.238Z,101544.83
2018-03-22T07:07:27.243Z,101549.70
2018-03-22T07:09:53.237Z,101551.34
2018-03-22T07:12:19.233Z,101558.81
2018-03-22T07:14:45.559Z,101547.22
2018-03-22T07:17:11.585Z,101549.77
2018-03-22T07:19:37.586Z,101559.88
2018-03-22T07:22:03.600Z,101559.36
2018-03-22T07:24:29.603Z,101552.52
2018-03-22T07:26:55.626Z,101544.26
2018-03-22T07:29:21.658Z,101548.13
2018-03-22T07:31:47.700Z,101546.14
2018-03-22T07:34:13.688Z,101545.66
2018-03-22T07:36:39.695Z,101545.03
2018-03-22T07:39:05.749Z,101543.81
2018-03-22T07:41:31.750Z,101553.67
2018-03-22T07:44:03.803Z,101558.81
2018-03-22T07:46:29.811Z,101557.06
2018-03-22T07:48:55.898Z,101553.94
2018-03-22T07:51:21.948Z,101562.00
2018-03-22T07:53:47.958Z,101551.50
2018-03-22T07:56:14.349Z,101557.12
2018-03-22T07:58:40.454Z,101555.91
2018-03-22T08:01:06.499Z,101549.28
2018-03-22T08:03:32.900Z,101548.44
2018-03-22T08:05:58.954Z,101550.61
2018-03-22T08:08:24.974Z,101550.21
2018-03-22T08:10:50.971Z,101554.98
2018-03-22T08:13:17.076Z,101549.15
2018-03-22T08:15:43.109Z,101546.13
2018-03-22T08:18:09.166Z,101554.45
2018-03-22T08:20:35.205Z,101547.92
2018-03-22T08:23:01.142Z,101546.18
2018-03-22T08:25:27.224Z,101547.28
2018-03-22T08:27:53.218Z,101549.30
2018-03-22T08:30:19.233Z,101551.00
2018-03-22T08:32:45.243Z,101550.30
2018-03-22T08:35:11.250Z,101543.30
2018-03-22T08:37:37.246Z,101542.94
2018-03-22T08:40:03.249Z,101543.78
2018-03-22T08:42:29.242Z,101540.76
2018-03-22T08:44:55.234Z,101542.83
2018-03-22T08:47:21.290Z,101540.50
2018-03-22T08:49:47.343Z,101540.17
2018-03-22T08:52:13.359Z,101538.33
2018-03-22T08:54:39.370Z,101544.52
2018-03-22T08:57:05.383Z,101538.52
2018-03-22T08:59:31.388Z,101534.33
2018-03-22T09:01:57.392Z,101536.41
2018-03-22T09:04:23.404Z,101544.08
2018-03-22T09:06:49.538Z,101540.52
2018-03-22T09:09:15.576Z,101529.11
2018-03-22T09:11:41.585Z,101533.35
2018-03-22T09:14:07.629Z,101536.02
2018-03-22T09:16:33.700Z,101535.49
2018-03-22T09:18:59.827Z,101544.98
2018-03-22T09:21:25.827Z,101536.75
2018-03-22T09:23:51.858Z,101533.34
2018-03-22T09:26:17.930Z,101533.41
2018-03-22T09:28:44.934Z,101535.82
2018-03-22T09:31:10.956Z,101535.77
2018-03-22T09:33:37.372Z,101542.48
2018-03-22T09:36:03.411Z,101540.16
2018-03-22T09:38:29.426Z,101540.18
2018-03-22T09:40:55.469Z,101541.59
2018-03-22T09:43:21.492Z,101545.20
2018-03-22T09:45:47.498Z,101548.87
2018-03-22T09:48:13.554Z,101549.84
2018-03-22T09:50:39.527Z,101538.09
2018-03-22T09:53:05.707Z,101553.59
2018-03-22T09:55:31.712Z,101546.00
2018-03-22T09:57:57.738Z,101539.33
2018-03-22T10:00:23.808Z,101533.84
2018-03-22T10:02:49.907Z,101527.54
2018-03-22T10:05:15.923Z,101525.59
2018-03-22T10:07:41.970Z,101527.53
2018-03-22T10:10:08.032Z,101528.24
2018-03-22T10:12:34.619Z,101526.45
2018-03-22T10:15:00.712Z,101519.47
2018-03-22T10:17:26.793Z,101524.86
2018-03-22T10:19:52.840Z,101519.67
2018-03-22T10:22:19.014Z,101522.98
2018-03-22T10:24:45.014Z,101532.27
2018-03-22T10:27:11.131Z,101539.37
2018-03-22T10:29:37.144Z,101530.97
2018-03-22T10:32:03.203Z,101532.48
2018-03-22T10:34:29.198Z,101528.42
2018-03-22T10:36:55.318Z,101521.98
2018-03-22T10:39:21.279Z,101526.01
2018-03-22T10:41:47.293Z,101527.64
2018-03-22T10:44:13.364Z,101521.44
2018-03-22T10:46:39.412Z,101523.12
2018-03-22T10:49:06.034Z,101517.26
2018-03-22T10:51:32.190Z,101520.56
2018-03-22T10:53:58.240Z,101512.41
2018-03-22T10:56:24.250Z,101516.11
2018-03-22T10:58:50.339Z,101519.25
2018-03-22T11:01:22.631Z,101517.48
2018-03-22T11:03:53.185Z,101512.64
2018-03-22T11:06:19.236Z,101513.49
2018-03-22T11:08:45.271Z,101510.10
2018-03-22T11:11:11.331Z,101505.81
2018-03-22T11:13:37.343Z,101506.11
2018-03-22T11:16:03.366Z,101508.54
2018-03-22T11:18:29.405Z,101506.22
2018-03-22T11:20:55.394Z,101500.58
2018-03-22T11:23:21.422Z,101504.59
2018-03-22T11:25:47.444Z,101499.80
2018-03-22T11:28:13.440Z,101491.81
2018-03-22T11:30:39.405Z,101487.09
2018-03-22T11:33:05.394Z,101488.20
2018-03-22T11:35:31.416Z,101485.61
2018-03-22T11:37:57.474Z,101483.00
2018-03-22T11:40:23.482Z,101487.58
2018-03-22T11:42:49.506Z,101482.41
2018-03-22T11:45:15.559Z,101486.89
2018-03-22T11:47:41.616Z,101484.66
2018-03-22T11:50:07.659Z,101479.03
2018-03-22T11:52:33.696Z,101481.88
2018-03-22T11:54:59.723Z,101480.61
2018-03-22T11:57:25.713Z,101478.99
2018-03-22T11:59:51.779Z,101473.64
2018-03-22T12:02:17.802Z,101485.50
2018-03-22T12:04:43.980Z,101479.67
2018-03-22T12:07:10.011Z,101477.14
2018-03-22T12:09:36.037Z,101491.37
2018-03-22T12:12:02.105Z,101486.77
2018-03-22T12:14:28.174Z,101492.66
2018-03-22T12:16:54.189Z,101492.09
2018-03-22T12:19:20.193Z,101492.30
2018-03-22T12:21:46.869Z,101482.97
2018-03-22T12:24:12.879Z,101480.44
2018-03-22T12:26:38.983Z,101480.39
2018-03-22T12:29:05.015Z,101479.27
2018-03-22T12:31:31.031Z,101467.52
2018-03-22T12:33:57.062Z,101469.22
2018-03-22T12:36:23.153Z,101457.96
2018-03-22T12:38:49.195Z,101458.30
2018-03-22T12:41:15.193Z,101470.61
2018-03-22T12:43:41.309Z,101469.62
2018-03-22T12:46:07.331Z,101474.81
2018-03-22T12:48:33.395Z,101481.77
2018-03-22T12:50:59.439Z,101472.56
2018-03-22T12:53:25.462Z,101465.30
2018-03-22T12:55:51.503Z,101461.80
2018-03-22T12:58:17.509Z,101463.77
2018-03-22T13:00:43.525Z,101470.48
2018-03-22T13:03:09.530Z,101461.59
2018-03-22T13:05:35.554Z,101456.23
2018-03-22T13:08:01.697Z,101458.33
2018-03-22T13:10:28.310Z,101459.50
2018-03-22T13:12:54.397Z,101459.73
2018-03-22T13:15:20.434Z,101456.51
2018-03-22T13:17:46.470Z,101460.79
2018-03-22T13:20:12.574Z,101458.47
2018-03-22T13:22:38.702Z,101455.09
2018-03-22T13:25:04.748Z,101453.46
2018-03-22T13:27:30.761Z,101446.48
2018-03-22T13:29:56.947Z,101447.09
2018-03-22T13:32:22.953Z,101445.88
2018-03-22T13:34:48.972Z,101441.45
2018-03-22T13:37:14.995Z,101447.19
2018-03-22T13:39:41.100Z,101447.37
2018-03-22T13:42:07.128Z,101451.83
2018-03-22T13:44:33.202Z,101450.37
2018-03-22T13:46:59.211Z,101455.54
2018-03-22T13:49:25.211Z,101444.89
2018-03-22T13:51:51.219Z,101446.25
2018-03-22T13:54:17.273Z,101446.28
2018-03-22T13:56:43.310Z,101446.44
2018-03-22T13:59:09.372Z,101445.98
2018-03-22T14:01:35.416Z,101451.08
2018-03-22T14:04:01.442Z,101448.06
2018-03-22T14:06:27.473Z,101452.11
2018-03-22T14:08:53.516Z,101448.19
2018-03-22T14:11:19.584Z,101443.07
2018-03-22T14:13:45.615Z,101443.11
2018-03-22T14:16:11.622Z,101435.95
2018-03-22T14:18:37.626Z,101428.78
2018-03-22T14:21:03.690Z,101427.01
2018-03-22T14:23:29.731Z,101429.13
2018-03-22T14:25:55.729Z,101419.63
2018-03-22T14:28:21.777Z,101416.73
2018-03-22T14:30:47.912Z,101421.16
2018-03-22T14:33:13.965Z,101416.52
2018-03-22T14:35:39.963Z,101411.56
2018-03-22T14:38:06.124Z,101411.83
2018-03-22T14:40:32.685Z,101406.07
2018-03-22T14:42:58.817Z,101401.72
2018-03-22T14:45:24.918Z,101401.36
2018-03-22T14:47:50.953Z,101400.80
2018-03-22T14:50:17.015Z,101396.55
2018-03-22T14:52:43.121Z,101390.42
2018-03-22T14:55:09.129Z,101394.57
2018-03-22T14:57:35.122Z,101389.26
2018-03-22T15:00:01.090Z,101384.69
2018-03-22T15:02:27.142Z,101391.33
2018-03-22T15:04:53.150Z,101386.22
2018-03-22T15:07:19.199Z,101389.26
2018-03-22T15:09:45.325Z,101391.24
2018-03-22T15:12:11.391Z,101384.84
2018-03-22T15:14:37.409Z,101383.13
2018-03-22T15:17:03.435Z,101386.11
2018-03-22T15:19:29.451Z,101386.13
2018-03-22T15:21:55.661Z,101375.33
2018-03-22T15:24:21.699Z,101373.64
2018-03-22T15:26:47.744Z,101370.39
2018-03-22T15:29:13.802Z,101380.74
2018-03-22T15:31:39.806Z,101373.26
2018-03-22T15:34:05.839Z,101372.30
2018-03-22T15:36:31.910Z,101370.61
2018-03-22T15:38:58.030Z,101367.94
2018-03-22T15:41:24.086Z,101366.88
2018-03-22T15:43:50.872Z,101369.70
2018-03-22T15:46:16.926Z,101370.95
2018-03-22T15:48:43.075Z,101374.06
2018-03-22T15:51:09.094Z,101368.37
2018-03-22T15:53:35.200Z,101363.45
2018-03-22T15:56:01.223Z,101371.15
2018-03-22T15:58:27.309Z,101365.45
2018-03-22T16:00:53.347Z,101368.05
2018-03-22T16:03:19.348Z,101363.06
2018-03-22T16:05:45.384Z,101370.14
2018-03-22T16:08:11.419Z,101366.04
2018-03-22T16:10:37.441Z,101363.66
2018-03-22T16:13:03.447Z,101358.53
2018-03-22T16:15:29.532Z,101360.02
2018-03-22T16:17:55.575Z,101361.16
2018-03-22T16:20:21.597Z,101354.68
2018-03-22T16:22:47.680Z,101354.05
2018-03-22T16:25:13.739Z,101355.59
2018-03-22T16:27:39.751Z,101354.91
2018-03-22T16:30:05.797Z,101350.64
2018-03-22T16:32:32.117Z,101347.03
2018-03-22T16:34:58.278Z,101348.36
2018-03-22T16:37:24.351Z,101345.82
2018-03-22T16:39:50.391Z,101349.77
2018-03-22T16:42:17.010Z,101349.34
2018-03-22T16:44:43.074Z,101344.44
2018-03-22T16:47:09.131Z,101341.08
2018-03-22T16:49:35.978Z,101350.31
2018-03-22T16:52:02.399Z,101351.95
2018-03-22T16:54:28.391Z,101351.23
2018-03-22T16:56:54.391Z,101348.16
2018-03-22T16:59:20.627Z,101342.70
2018-03-22T17:01:47.188Z,101342.55
2018-03-22T17:04:13.213Z,101342.25
2018-03-22T17:06:39.326Z,101339.98
2018-03-22T17:09:05.356Z,101339.69
2018-03-22T17:11:31.346Z,101328.52
2018-03-22T17:13:57.353Z,101329.91
2018-03-22T17:16:23.372Z,101326.66
2018-03-22T17:18:49.372Z,101327.92
2018-03-22T17:21:15.406Z,101324.45
2018-03-22T17:23:41.486Z,101326.08
2018-03-22T17:26:07.494Z,101323.97
2018-03-22T17:28:33.546Z,101320.95
2018-03-22T17:30:59.569Z,101326.69
2018-03-22T17:33:25.643Z,101325.17
2018-03-22T17:35:51.825Z,101327.34
2018-03-22T17:38:17.984Z,101316.17
2018-03-22T17:40:43.991Z,101318.25
2018-03-22T17:43:10.046Z,101318.49
2018-03-22T17:45:36.117Z,101318.31
2018-03-22T17:48:02.218Z,101322.53
2018-03-22T17:50:28.233Z,101320.84
2018-03-22T17:52:54.262Z,101319.75
2018-03-22T17:55:20.336Z,101320.59
2018-03-22T17:57:46.446Z,101320.34
2018-03-22T18:00:12.518Z,101319.91
2018-03-22T18:02:38.590Z,101330.53
2018-03-22T18:05:05.273Z,101322.20
2018-03-22T18:07:31.302Z,101324.62
2018-03-22T18:09:57.370Z,101323.23
2018-03-22T18:12:23.445Z,101325.41
2018-03-22T18:14:49.467Z,101319.48
2018-03-22T18:17:15.518Z,101322.25
2018-03-22T18:19:41.529Z,101317.85
2018-03-22T18:22:07.590Z,101317.69
2018-03-22T18:24:33.582Z,101315.52
2018-03-22T18:26:59.602Z,101312.92
2018-03-22T18:29:25.614Z,101311.70
2018-03-22T18:31:51.628Z,101311.64
2018-03-22T18:34:17.667Z,101310.50
2018-03-22T18:36:43.718Z,101304.47
2018-03-22T18:39:09.805Z,101306.70
2018-03-22T18:41:35.829Z,101308.03
2018-03-22T18:44:01.846Z,101304.53
2018-03-22T18:46:27.850Z,101299.76
2018-03-22T18:48:53.872Z,101296.68
2018-03-22T18:51:20.018Z,101295.77
2018-03-22T18:53:46.036Z,101300.66
2018-03-22T18:56:12.038Z,101299.45
2018-03-22T18:58:38.098Z,101295.47
2018-03-22T19:01:04.223Z,101289.44
2018-03-22T19:03:30.268Z,101293.41
2018-03-22T19:05:56.369Z,101297.81
2018-03-22T19:08:22.422Z,101280.99
2018-03-22T19:10:48.540Z,101279.91
2018-03-22T19:13:15.397Z,101277.67
2018-03-22T19:15:41.462Z,101277.25
2018-03-22T19:18:07.545Z,101276.66
2018-03-22T19:20:33.549Z,101279.06
2018-03-22T19:22:59.578Z,101282.73
2018-03-22T19:25:25.596Z,101281.41
2018-03-22T19:27:51.672Z,101277.73
2018-03-22T19:30:17.710Z,101275.19
2018-03-22T19:32:43.719Z,101271.52
2018-03-22T19:35:09.759Z,101274.59
2018-03-22T19:37:35.784Z,101267.04
2018-03-22T19:40:01.804Z,101262.23
2018-03-22T19:42:27.861Z,101262.21
2018-03-22T19:44:53.868Z,101263.79
2018-03-22T19:47:19.976Z,101269.03
2018-03-22T19:49:45.978Z,101266.75
2018-03-22T19:52:12.107Z,101265.11
2018-03-22T19:54:38.158Z,101264.38
2018-03-22T19:57:04.344Z,101256.44
2018-03-22T19:59:30.463Z,101254.69
2018-03-22T20:01:56.611Z,101249.50
2018-03-22T20:04:22.664Z,101249.69
2018-03-22T20:06:48.846Z,101252.40
2018-03-22T20:09:14.996Z,101246.52
2018-03-22T20:11:41.078Z,101251.61
2018-03-22T20:14:07.286Z,101246.42
2018-03-22T20:16:33.335Z,101242.53
2018-03-22T20:18:59.340Z,101239.94
2018-03-22T20:21:25.345Z,101244.19
2018-03-22T20:23:51.417Z,101240.42
2018-03-22T20:26:17.503Z,101236.17
2018-03-22T20:28:44.174Z,101234.79
2018-03-22T20:31:10.359Z,101237.44
2018-03-22T20:33:36.387Z,101233.25
2018-03-22T20:36:02.528Z,101226.19
2018-03-22T20:38:28.652Z,101235.75
2018-03-22T20:40:54.739Z,101230.92
2018-03-22T20:43:20.856Z,101227.64
2018-03-22T20:45:46.938Z,101225.28
2018-03-22T20:48:12.962Z,101223.59
2018-03-22T20:50:39.013Z,101223.70
2018-03-22T20:53:05.037Z,101219.66
2018-03-22T20:55:31.014Z,101213.50
2018-03-22T20:57:57.162Z,101217.84
2018-03-22T21:00:23.278Z,101214.41
2018-03-22T21:02:49.337Z,101218.58
2018-03-22T21:05:15.368Z,101224.67
2018-03-22T21:07:41.451Z,101219.05
2018-03-22T21:10:07.474Z,101212.96
2018-03-22T21:12:33.534Z,101214.71
2018-03-22T21:14:59.822Z,101212.96
2018-03-22T21:17:25.877Z,101211.81
2018-03-22T21:19:51.963Z,101214.47
2018-03-22T21:22:18.031Z,101210.55
2018-03-22T21:24:44.066Z,101204.34
2018-03-22T21:27:10.070Z,101207.53
2018-03-22T21:29:36.818Z,101206.39
2018-03-22T21:32:02.952Z,101194.93
2018-03-22T21:34:29.002Z,101193.37
2018-03-22T21:36:55.477Z,101201.45
2018-03-22T21:39:21.597Z,101189.44
2018-03-22T21:44:42.298Z,101188.36
2018-03-22T21:47:20.759Z,101175.09
2018-03-22T21:49:46.788Z,101170.69
2018-03-22T21:52:25.762Z,101169.78
2018-03-22T21:54:51.911Z,101171.59
2018-03-22T21:57:17.971Z,101167.73
2018-03-22T21:59:43.998Z,101168.66
2018-03-22T22:02:10.120Z,101156.18
2018-03-22T22:04:36.146Z,101159.20
2018-03-22T22:07:02.171Z,101158.95
2018-03-22T22:09:28.202Z,101154.48
2018-03-22T22:11:54.229Z,101148.94
2018-03-22T22:14:20.254Z,101150.09
2018-03-22T22:16:46.284Z,101147.80
2018-03-22T22:19:13.199Z,101140.14
2018-03-22T22:21:39.211Z,101138.98
2018-03-22T22:24:05.252Z,101139.72
2018-03-22T22:26:31.345Z,101131.69
2018-03-22T22:28:57.437Z,101130.06
2018-03-22T22:31:23.442Z,101124.52
2018-03-22T22:33:49.486Z,101118.84
2018-03-22T22:36:15.538Z,101117.28
2018-03-22T22:38:41.593Z,101112.16
2018-03-22T22:41:07.616Z,101105.64
2018-03-22T22:43:33.635Z,101105.40
2018-03-22T22:45:59.706Z,101097.14
2018-03-22T22:48:25.702Z,101100.21
2018-03-22T22:50:51.817Z,101096.11
2018-03-22T22:53:17.826Z,101095.75
2018-03-22T22:55:43.868Z,101088.91
2018-03-22T22:58:09.985Z,101088.00
2018-03-22T23:00:36.018Z,101088.06
2018-03-22T23:03:02.054Z,101090.30
2018-03-22T23:05:28.107Z,101082.52
2018-03-22T23:07:54.178Z,101080.53
2018-03-22T23:10:20.182Z,101074.87
2018-03-22T23:12:46.180Z,101070.41
2018-03-22T23:15:12.798Z,101062.33
2018-03-22T23:17:38.891Z,101074.87
2018-03-22T23:20:04.905Z,101064.56
2018-03-22T23:22:30.927Z,101069.56
2018-03-22T23:24:56.976Z,101059.20
2018-03-22T23:27:23.087Z,101060.34
2018-03-22T23:29:49.241Z,101058.77
2018-03-22T23:32:15.225Z,101051.91
2018-03-22T23:34:41.307Z,101051.13
2018-03-22T23:37:07.290Z,101047.20
2018-03-22T23:39:33.335Z,101043.17
2018-03-22T23:41:59.395Z,101048.17
2018-03-22T23:44:25.425Z,101039.55
2018-03-22T23:46:51.463Z,101043.77
2018-03-22T23:49:17.496Z,101040.52
2018-03-22T23:51:43.507Z,101034.37
2018-03-22T23:54:09.511Z,101033.16
2018-03-22T23:56:35.581Z,101023.87
2018-03-22T23:59:01.587Z,101020.51
